Time;durP1;ratioP1;P1;durP2;ratioP2;P2;SDS_P1;SDS_P2;PMS_P1;PMS_P2;Temp;Humidity;BMP_temperature;BMP_pressure;BME280_temperature;BME280_humidity;BME280_pressure;Samples;Min_cycle;Max_cycle;Signal;HPM_P1;HPM_P2
2022/01/10 00:00:50;;;;;;;8.17;7.10;;;5.10;99.90;;;;;;5032709;28;20489;-57
2022/01/10 00:03:16;;;;;;;9.27;8.10;;;5.20;99.90;;;;;;5033913;28;20383;-56
2022/01/10 00:05:41;;;;;;;7.73;6.63;;;5.20;99.90;;;;;;5033583;28;20890;-57
2022/01/10 00:08:08;;;;;;;12.70;8.10;;;5.20;99.90;;;;;;5033387;28;20417;-59
2022/01/10 00:10:34;;;;;;;8.03;7.20;;;5.10;99.90;;;;;;5032258;28;20321;-59
2022/01/10 00:13:00;;;;;;;9.30;6.80;;;5.20;99.90;;;;;;5033033;28;20432;-57
2022/01/10 00:15:25;;;;;;;8.93;8.03;;;5.20;99.90;;;;;;5033469;28;20536;-56
2022/01/10 00:17:51;;;;;;;11.30;8.77;;;5.10;99.90;;;;;;5034031;28;20226;-57
2022/01/10 00:20:18;;;;;;;10.70;7.10;;;5.10;99.90;;;;;;5033423;28;20191;-57
2022/01/10 00:22:47;;;;;;;9.93;7.23;;;5.10;99.90;;;;;;5033469;28;20409;-57
2022/01/10 00:25:16;;;;;;;10.90;8.90;;;5.20;99.90;;;;;;5033492;28;20406;-58
2022/01/10 00:27:43;;;;;;;9.53;7.53;;;5.20;99.90;;;;;;5033181;28;20484;-57
2022/01/10 00:30:10;;;;;;;8.77;7.37;;;5.20;99.90;;;;;;5029351;28;20454;-57
2022/01/10 00:32:37;;;;;;;7.70;6.90;;;5.30;99.90;;;;;;5020433;28;20525;-57
2022/01/10 00:35:04;;;;;;;8.90;8.00;;;5.40;99.90;;;;;;5033365;28;20834;-59
2022/01/10 00:37:29;;;;;;;10.93;8.10;;;5.40;99.90;;;;;;5032966;28;20453;-59
2022/01/10 00:39:55;;;;;;;8.33;6.77;;;5.40;99.90;;;;;;5032945;28;20840;-57
2022/01/10 00:42:20;;;;;;;7.90;6.97;;;5.30;99.90;;;;;;5032910;28;20168;-60
2022/01/10 00:44:51;;;;;;;7.60;6.87;;;5.20;99.90;;;;;;5033006;28;20213;-58
2022/01/10 00:47:17;;;;;;;10.20;8.57;;;5.30;99.90;;;;;;5032945;28;20168;-57
2022/01/10 00:49:44;;;;;;;7.30;6.60;;;5.40;99.90;;;;;;5028316;28;20414;-60
2022/01/10 00:52:10;;;;;;;8.23;6.17;;;5.30;99.90;;;;;;5032823;28;20520;-60
2022/01/10 00:54:36;;;;;;;10.17;7.10;;;5.30;99.90;;;;;;5032299;28;20537;-60
2022/01/10 00:57:03;;;;;;;8.80;7.33;;;5.30;99.90;;;;;;5032864;28;20835;-58
2022/01/10 00:59:28;;;;;;;9.70;6.17;;;5.20;99.90;;;;;;5031746;28;20458;-55
2022/01/10 01:01:54;;;;;;;7.40;6.70;;;5.20;99.90;;;;;;5032547;28;20488;-53
2022/01/10 01:04:20;;;;;;;10.40;6.30;;;5.20;99.90;;;;;;5033085;28;20178;-59
2022/01/10 01:06:47;;;;;;;7.03;6.33;;;5.10;99.90;;;;;;5033219;28;20175;-58
2022/01/10 01:09:16;;;;;;;7.13;5.50;;;5.10;99.90;;;;;;5015109;28;20469;-59
2022/01/10 01:14:23;;;;;;;5.83;4.90;;;5.20;99.90;;;;;;5036888;28;20863;-59
2022/01/10 01:16:58;;;;;;;9.90;6.97;;;5.20;99.90;;;;;;5036674;28;20445;-57
2022/01/10 01:24:36;;;;;;;7.80;4.77;;;5.20;99.90;;;;;;5036616;28;20429;-59
2022/01/10 01:27:02;;;;;;;6.20;4.73;;;5.10;99.90;;;;;;5036324;28;20890;-59
2022/01/10 01:29:29;;;;;;;6.03;4.00;;;5.20;99.90;;;;;;5035870;28;20179;-58
2022/01/10 01:31:56;;;;;;;7.00;4.60;;;5.20;99.90;;;;;;5036156;28;20445;-58
2022/01/10 01:34:23;;;;;;;4.97;4.20;;;5.10;99.90;;;;;;5036273;28;20476;-57
2022/01/10 01:36:52;;;;;;;5.70;4.43;;;5.20;99.90;;;;;;5036162;28;20459;-56
2022/01/10 01:39:21;;;;;;;7.00;4.47;;;5.20;99.90;;;;;;5036275;28;20414;-59
2022/01/10 01:41:55;;;;;;;4.93;4.40;;;5.30;99.90;;;;;;5035864;28;20436;-59
2022/01/10 01:44:20;;;;;;;6.97;4.40;;;5.30;99.90;;;;;;5035893;28;20403;-58
2022/01/10 01:46:46;;;;;;;5.17;4.00;;;5.30;99.90;;;;;;5035886;28;20509;-59
2022/01/10 01:49:13;;;;;;;11.83;4.60;;;5.30;99.90;;;;;;5035210;28;20283;-59
2022/01/10 01:51:39;;;;;;;6.57;5.60;;;5.30;99.90;;;;;;5035677;28;20202;-56
2022/01/10 01:54:06;;;;;;;7.60;4.53;;;5.20;99.90;;;;;;5035666;28;20406;-59
2022/01/10 01:56:32;;;;;;;7.30;4.10;;;5.20;99.90;;;;;;5035706;28;20453;-56
2022/01/10 01:58:58;;;;;;;6.27;3.93;;;5.20;99.90;;;;;;5035596;28;20410;-58
2022/01/10 02:01:25;;;;;;;4.93;3.60;;;5.20;99.90;;;;;;5035171;28;20209;-57
2022/01/10 02:03:52;;;;;;;7.20;4.40;;;5.30;99.90;;;;;;5035258;28;20426;-58
2022/01/10 02:06:17;;;;;;;6.13;3.90;;;5.10;99.90;;;;;;5035504;28;20501;-59
2022/01/10 02:08:44;;;;;;;6.47;4.50;;;5.00;99.90;;;;;;5035873;28;20491;-59
2022/01/10 02:11:14;;;;;;;7.00;3.90;;;5.10;99.90;;;;;;5035008;28;20226;-59
2022/01/10 02:13:41;;;;;;;4.73;2.97;;;5.10;99.90;;;;;;5035442;28;20469;-59
2022/01/10 02:16:10;;;;;;;8.23;3.03;;;5.10;99.90;;;;;;5035084;28;20531;-59
2022/01/10 02:18:36;;;;;;;4.17;3.50;;;5.10;99.90;;;;;;5035544;28;20782;-59
2022/01/10 02:21:05;;;;;;;5.33;4.07;;;5.10;99.90;;;;;;5035359;28;20845;-59
2022/01/10 02:23:32;;;;;;;4.50;3.43;;;5.10;99.90;;;;;;5034015;28;20952;-56
2022/01/10 02:25:58;;;;;;;7.23;3.60;;;5.10;99.90;;;;;;5035113;28;20421;-58
2022/01/10 02:28:24;;;;;;;4.97;2.90;;;5.10;99.90;;;;;;5035064;28;20406;-59
2022/01/10 02:30:57;;;;;;;5.30;3.13;;;5.10;99.90;;;;;;5034174;28;20488;-58
2022/01/10 02:33:24;;;;;;;5.10;3.37;;;5.10;99.90;;;;;;5017271;28;20410;-59
2022/01/10 02:36:32;;;;;;;10.30;3.40;;;5.10;99.90;;;;;;5034886;28;20452;-59
2022/01/10 02:38:46;;;;;;;7.10;3.00;;;5.10;99.90;;;;;;5029378;28;20446;-58
2022/01/10 02:41:22;;;;;;;4.63;3.27;;;5.30;99.90;;;;;;5034839;28;20437;-57
2022/01/10 02:43:48;;;;;;;3.70;3.17;;;5.30;99.90;;;;;;5031634;28;20394;-56
2022/01/10 02:46:14;;;;;;;4.23;3.67;;;5.20;99.90;;;;;;5034657;28;20489;-57
2022/01/10 02:48:40;;;;;;;4.53;3.50;;;5.20;99.90;;;;;;5034739;28;20874;-58
2022/01/10 02:51:05;;;;;;;3.70;2.80;;;5.20;99.90;;;;;;5033725;28;20203;-57
2022/01/10 02:53:31;;;;;;;6.20;3.87;;;5.20;99.90;;;;;;5034605;28;20414;-57
2022/01/10 02:55:56;;;;;;;8.13;4.00;;;5.20;99.90;;;;;;5034028;28;20226;-58
2022/01/10 02:58:22;;;;;;;3.23;2.90;;;5.20;99.90;;;;;;5034765;28;20639;-55
2022/01/10 03:00:47;;;;;;;6.00;3.77;;;5.20;99.90;;;;;;5034304;28;20199;-59
2022/01/10 03:03:13;;;;;;;4.60;3.37;;;5.30;99.90;;;;;;5034442;28;20251;-59
2022/01/10 03:05:39;;;;;;;5.80;3.93;;;5.30;99.90;;;;;;5031533;28;20542;-58
2022/01/10 03:08:05;;;;;;;4.73;4.23;;;5.30;99.90;;;;;;5033778;28;20175;-58
2022/01/10 03:10:31;;;;;;;7.23;4.37;;;5.30;99.90;;;;;;5034506;28;20586;-58
2022/01/10 03:13:01;;;;;;;8.67;3.50;;;5.30;99.90;;;;;;5034364;28;20420;-53
2022/01/10 03:15:27;;;;;;;4.10;3.57;;;5.30;99.90;;;;;;5033958;28;20928;-60
2022/01/10 03:17:53;;;;;;;12.07;4.40;;;5.40;99.90;;;;;;5034053;28;20445;-60
2022/01/10 03:20:19;;;;;;;6.37;4.27;;;5.40;99.90;;;;;;5033899;28;20462;-59
2022/01/10 03:22:44;;;;;;;10.27;4.80;;;5.40;99.90;;;;;;5034077;28;20520;-59
2022/01/10 03:25:10;;;;;;;8.00;5.50;;;5.40;99.90;;;;;;5033943;28;20493;-59
2022/01/10 03:27:36;;;;;;;5.70;4.13;;;5.40;99.90;;;;;;5033937;28;20420;-58
2022/01/10 03:30:03;;;;;;;6.50;4.70;;;5.50;99.90;;;;;;5033836;28;20254;-59
2022/01/10 03:32:29;;;;;;;7.10;4.90;;;5.60;99.90;;;;;;5034063;28;20505;-59
2022/01/10 03:34:57;;;;;;;8.67;4.77;;;5.60;99.90;;;;;;5033690;28;20441;-58
2022/01/10 03:37:23;;;;;;;9.87;5.83;;;5.60;99.90;;;;;;5033612;28;20234;-58
2022/01/10 03:39:49;;;;;;;5.23;4.30;;;5.70;99.90;;;;;;5034573;28;20406;-59
2022/01/10 03:42:15;;;;;;;6.60;4.40;;;5.60;99.90;;;;;;5035538;28;20445;-58
2022/01/10 03:44:40;;;;;;;5.90;4.90;;;5.70;99.90;;;;;;5033788;28;20191;-60
2022/01/10 03:47:06;;;;;;;10.53;5.27;;;5.60;99.90;;;;;;5033808;28;20174;-59
2022/01/10 03:49:32;;;;;;;9.93;5.50;;;5.70;99.90;;;;;;5033576;28;20186;-60
2022/01/10 03:51:57;;;;;;;8.17;5.53;;;5.70;99.90;;;;;;5033416;28;20245;-59
2022/01/10 03:54:23;;;;;;;9.20;5.60;;;5.70;99.90;;;;;;5033454;28;20180;-59
2022/01/10 03:56:49;;;;;;;9.40;5.90;;;5.70;99.90;;;;;;5033444;28;20201;-59
2022/01/10 03:59:14;;;;;;;5.40;4.90;;;5.70;99.90;;;;;;5033781;28;20206;-59
2022/01/10 04:01:40;;;;;;;6.37;5.60;;;5.80;99.90;;;;;;5045917;23;20228;-61
2022/01/10 04:04:07;;;;;;;6.60;5.20;;;5.80;99.90;;;;;;5008001;28;20235;-62
2022/01/10 04:06:32;;;;;;;7.27;5.07;;;5.90;99.90;;;;;;5006318;28;20184;-62
2022/01/10 04:08:58;;;;;;;6.30;5.23;;;5.90;99.90;;;;;;5007943;28;20403;-62
2022/01/10 04:11:24;;;;;;;7.43;4.90;;;5.90;99.90;;;;;;5007708;28;20436;-61
2022/01/10 04:13:50;;;;;;;6.87;5.50;;;5.90;99.90;;;;;;5010143;28;20669;-61
2022/01/10 04:16:16;;;;;;;7.53;6.07;;;5.80;99.90;;;;;;4994683;28;20960;-61
2022/01/10 04:18:41;;;;;;;6.07;5.47;;;5.90;99.90;;;;;;4994320;28;20204;-63
2022/01/10 04:21:07;;;;;;;7.00;6.00;;;6.00;99.90;;;;;;4995177;28;20420;-63
2022/01/10 04:23:32;;;;;;;8.07;7.10;;;6.00;99.90;;;;;;4994215;28;20177;-63
2022/01/10 04:25:58;;;;;;;8.53;6.33;;;5.90;99.90;;;;;;4994383;28;20638;-63
2022/01/10 04:28:24;;;;;;;9.77;7.23;;;5.90;99.90;;;;;;4992926;28;20181;-63
2022/01/10 04:30:50;;;;;;;9.97;6.53;;;5.90;99.90;;;;;;4994242;28;20174;-63
2022/01/10 04:33:18;;;;;;;10.80;7.03;;;5.80;99.90;;;;;;4994092;28;20495;-62
2022/01/10 04:35:44;;;;;;;8.10;7.30;;;5.60;99.90;;;;;;4993988;28;20200;-63
2022/01/10 04:38:11;;;;;;;9.13;6.00;;;5.60;99.90;;;;;;4993906;28;20783;-63
2022/01/10 04:40:36;;;;;;;8.90;7.10;;;5.70;99.90;;;;;;4994042;28;20458;-63
2022/01/10 04:43:02;;;;;;;15.53;7.50;;;5.60;99.90;;;;;;4993482;28;20427;-63
2022/01/10 04:45:28;;;;;;;10.30;6.50;;;5.50;99.90;;;;;;4995262;28;20203;-63
2022/01/10 04:47:54;;;;;;;10.93;8.00;;;5.60;99.90;;;;;;4992384;28;20414;-63
2022/01/10 04:52:45;;;;;;;8.30;6.70;;;5.70;99.90;;;;;;4997775;28;20277;-62
2022/01/10 04:55:12;;;;;;;10.70;7.47;;;5.80;99.90;;;;;;4997392;28;20596;-61
2022/01/10 04:57:38;;;;;;;9.50;6.80;;;5.90;99.90;;;;;;4997929;28;20209;-63
2022/01/10 05:00:05;;;;;;;8.07;7.23;;;6.00;99.90;;;;;;4995847;28;20768;-62
2022/01/10 05:02:30;;;;;;;11.80;7.17;;;6.00;99.90;;;;;;4977890;28;20205;-61
2022/01/10 05:04:56;;;;;;;11.40;8.60;;;5.80;99.90;;;;;;4978147;28;20475;-62
2022/01/10 05:07:22;;;;;;;12.60;8.00;;;5.60;99.90;;;;;;4977916;28;20672;-63
2022/01/10 05:09:47;;;;;;;11.07;7.90;;;5.60;99.90;;;;;;4960436;28;20209;-63
2022/01/10 05:12:13;;;;;;;11.27;7.83;;;5.70;99.90;;;;;;4977886;28;20189;-63
2022/01/10 05:14:39;;;;;;;12.40;9.27;;;5.70;99.90;;;;;;4977726;28;20183;-62
2022/01/10 05:17:05;;;;;;;12.00;7.90;;;5.40;99.90;;;;;;4978179;28;20244;-60
2022/01/10 05:19:31;;;;;;;10.30;9.17;;;5.40;99.90;;;;;;4977584;28;20409;-63
2022/01/10 05:21:57;;;;;;;13.00;8.53;;;5.40;99.90;;;;;;4977334;28;20434;-63
2022/01/10 05:24:22;;;;;;;11.23;8.47;;;5.40;99.90;;;;;;4974348;28;20666;-64
2022/01/10 05:26:48;;;;;;;11.33;9.47;;;5.30;99.90;;;;;;4987476;28;20196;-62
2022/01/10 05:29:14;;;;;;;12.20;8.83;;;5.50;99.90;;;;;;4997208;28;20326;-63
2022/01/10 05:31:39;;;;;;;15.33;10.37;;;5.60;99.90;;;;;;4999041;28;20199;-61
2022/01/10 05:34:05;;;;;;;9.60;8.13;;;5.50;99.90;;;;;;4996933;28;20223;-61
2022/01/10 05:36:30;;;;;;;10.43;8.10;;;5.50;99.90;;;;;;4996717;28;20704;-61
2022/01/10 05:38:56;;;;;;;13.30;9.03;;;5.70;99.90;;;;;;4995878;28;20178;-62
2022/01/10 05:41:22;;;;;;;12.27;9.37;;;5.70;99.90;;;;;;4979193;28;20200;-63
2022/01/10 05:43:49;;;;;;;16.70;9.83;;;5.60;99.90;;;;;;4996620;28;20404;-63
2022/01/10 05:46:19;;;;;;;13.23;8.80;;;5.70;99.90;;;;;;4996902;28;20923;-63
2022/01/10 05:48:47;;;;;;;13.90;9.50;;;5.80;99.90;;;;;;4997006;28;20404;-63
2022/01/10 05:51:16;;;;;;;15.20;10.13;;;5.80;99.90;;;;;;4996623;28;20800;-62
2022/01/10 05:53:42;;;;;;;11.90;9.07;;;5.60;99.90;;;;;;4996479;28;20458;-63
2022/01/10 05:56:08;;;;;;;15.43;10.23;;;5.70;99.90;;;;;;4977382;28;20480;-61
2022/01/10 05:58:33;;;;;;;13.03;10.63;;;5.70;99.90;;;;;;4988515;28;20432;-57
2022/01/10 06:00:59;;;;;;;14.00;12.50;;;5.70;99.90;;;;;;4976448;28;20420;-62
2022/01/10 06:03:25;;;;;;;12.57;10.37;;;5.70;99.90;;;;;;4977339;28;20508;-62
2022/01/10 06:05:50;;;;;;;12.77;9.40;;;5.80;99.90;;;;;;4976300;28;20173;-62
2022/01/10 06:08:16;;;;;;;14.00;10.80;;;5.60;99.90;;;;;;4996260;28;20180;-62
2022/01/10 06:10:42;;;;;;;13.23;10.27;;;5.40;99.90;;;;;;4996490;28;20181;-63
2022/01/10 06:13:08;;;;;;;13.80;11.13;;;5.50;99.90;;;;;;4995931;28;20204;-62
2022/01/10 06:15:33;;;;;;;16.47;12.10;;;5.30;99.90;;;;;;4996359;28;20169;-62
2022/01/10 06:17:59;;;;;;;20.57;12.17;;;5.30;99.90;;;;;;4978397;28;20177;-64
2022/01/10 06:20:25;;;;;;;17.13;12.53;;;5.40;99.90;;;;;;4975884;28;20622;-62
2022/01/10 06:22:51;;;;;;;16.63;11.10;;;5.60;99.90;;;;;;4975890;28;20685;-62
2022/01/10 06:25:21;;;;;;;16.17;11.47;;;5.40;99.90;;;;;;4992564;28;20428;-63
2022/01/10 06:27:46;;;;;;;16.00;12.03;;;5.40;99.90;;;;;;4995768;28;20235;-63
2022/01/10 06:30:13;;;;;;;14.57;10.07;;;5.60;99.90;;;;;;4995847;28;20818;-63
2022/01/10 06:32:39;;;;;;;15.33;12.20;;;5.60;99.90;;;;;;4996200;28;20196;-62
2022/01/10 06:35:05;;;;;;;14.80;12.13;;;5.70;99.90;;;;;;4978219;28;20555;-61
2022/01/10 06:37:31;;;;;;;17.70;11.03;;;5.60;99.90;;;;;;4995346;28;20524;-62
2022/01/10 06:39:57;;;;;;;16.77;12.80;;;5.40;99.90;;;;;;4995680;28;20778;-62
2022/01/10 06:42:22;;;;;;;19.67;12.67;;;5.40;99.90;;;;;;4984280;28;20428;-63
2022/01/10 06:44:49;;;;;;;18.10;13.60;;;5.40;99.90;;;;;;4976280;28;20180;-61
2022/01/10 06:47:15;;;;;;;20.57;13.50;;;5.40;99.90;;;;;;4975853;28;20174;-62
2022/01/10 06:49:41;;;;;;;23.63;15.00;;;5.20;99.90;;;;;;4976242;28;20413;-61
2022/01/10 06:52:06;;;;;;;22.20;14.50;;;5.20;99.90;;;;;;4975771;28;20508;-61
2022/01/10 06:54:32;;;;;;;16.73;13.30;;;5.30;99.90;;;;;;4986322;28;20416;-62
2022/01/10 06:56:58;;;;;;;17.70;13.33;;;5.20;99.90;;;;;;4995105;28;20668;-61
2022/01/10 06:59:27;;;;;;;20.17;13.07;;;5.10;99.90;;;;;;4993918;28;20540;-61
2022/01/10 07:01:55;;;;;;;22.47;13.90;;;5.10;99.90;;;;;;4994936;28;20979;-60
2022/01/10 07:04:22;;;;;;;17.60;13.93;;;5.10;99.90;;;;;;4995203;28;20762;-61
2022/01/10 07:06:47;;;;;;;17.57;13.00;;;5.30;99.90;;;;;;4995319;28;20400;-62
2022/01/10 07:09:13;;;;;;;22.93;16.10;;;5.00;99.90;;;;;;4997699;28;20919;-63
2022/01/10 07:11:39;;;;;;;21.83;15.20;;;5.00;99.90;;;;;;4995102;28;20199;-63
2022/01/10 07:14:05;;;;;;;19.87;13.70;;;5.10;99.90;;;;;;4994875;28;20404;-61
2022/01/10 07:16:31;;;;;;;28.53;16.50;;;5.10;99.90;;;;;;4994694;28;20188;-63
2022/01/10 07:18:56;;;;;;;20.73;15.13;;;5.20;99.90;;;;;;4995111;28;20405;-63
2022/01/10 07:21:22;;;;;;;17.67;13.73;;;5.30;99.90;;;;;;4994074;28;20409;-63
2022/01/10 07:23:48;;;;;;;24.83;16.67;;;5.40;99.90;;;;;;4994540;28;20165;-63
2022/01/10 07:26:15;;;;;;;20.77;14.73;;;5.40;99.90;;;;;;4994812;28;20306;-61
2022/01/10 07:28:40;;;;;;;25.30;17.20;;;5.40;99.90;;;;;;4994679;28;20274;-63
2022/01/10 07:31:06;;;;;;;18.80;13.57;;;5.30;99.90;;;;;;4994373;28;20436;-63
2022/01/10 07:33:32;;;;;;;20.53;15.70;;;5.30;99.90;;;;;;4994638;28;20191;-63
2022/01/10 07:35:58;;;;;;;21.43;14.87;;;5.40;99.90;;;;;;4992113;28;20551;-61
2022/01/10 07:38:24;;;;;;;19.73;12.70;;;5.30;99.90;;;;;;4970985;28;20193;-63
2022/01/10 07:40:50;;;;;;;17.50;12.70;;;5.40;99.90;;;;;;4975089;28;20487;-63
2022/01/10 07:43:16;;;;;;;19.47;14.03;;;5.40;99.90;;;;;;4975100;28;20533;-62
2022/01/10 07:45:41;;;;;;;16.50;13.70;;;5.50;99.90;;;;;;4974715;28;20493;-61
2022/01/10 07:48:08;;;;;;;19.10;13.90;;;5.50;99.90;;;;;;4975061;28;20165;-63
2022/01/10 07:50:33;;;;;;;23.03;13.97;;;5.50;99.90;;;;;;4974882;28;20521;-63
2022/01/10 07:52:59;;;;;;;15.00;12.73;;;5.50;99.90;;;;;;4974343;28;20423;-64
2022/01/10 07:55:24;;;;;;;20.20;14.63;;;5.50;99.90;;;;;;4978501;28;20173;-63
2022/01/10 07:57:50;;;;;;;15.90;13.07;;;5.20;99.90;;;;;;4993832;28;20176;-63
2022/01/10 08:00:16;;;;;;;17.27;13.30;;;5.00;99.90;;;;;;4994602;28;20172;-63
2022/01/10 08:02:41;;;;;;;20.83;15.83;;;5.10;99.90;;;;;;4994730;28;20287;-63
2022/01/10 08:05:09;;;;;;;16.43;13.00;;;5.20;99.90;;;;;;4993393;28;20207;-64
2022/01/10 08:07:35;;;;;;;23.13;15.20;;;5.30;99.90;;;;;;4994192;28;20188;-63
2022/01/10 08:10:02;;;;;;;18.80;14.97;;;5.20;99.90;;;;;;4993945;28;20454;-63
2022/01/10 08:12:27;;;;;;;17.70;15.40;;;4.80;99.90;;;;;;4993628;28;20436;-62
2022/01/10 08:14:53;;;;;;;20.00;15.63;;;4.70;99.90;;;;;;4994107;28;20437;-63
2022/01/10 08:17:18;;;;;;;23.10;16.23;;;4.70;99.90;;;;;;4994163;28;20204;-63
2022/01/10 08:19:44;;;;;;;19.13;16.00;;;4.70;99.90;;;;;;4993132;28;20244;-63
2022/01/10 08:22:10;;;;;;;20.60;16.20;;;4.60;99.90;;;;;;4993787;28;20649;-62
2022/01/10 08:24:35;;;;;;;19.40;15.50;;;4.80;99.90;;;;;;4994239;28;20164;-62
2022/01/10 08:27:01;;;;;;;26.87;19.40;;;4.80;99.90;;;;;;4993702;28;20248;-63
2022/01/10 08:29:27;;;;;;;23.80;16.73;;;4.70;99.90;;;;;;4995398;28;20172;-63
2022/01/10 08:31:53;;;;;;;19.30;17.13;;;4.80;99.90;;;;;;4994176;28;20228;-62
2022/01/10 08:34:21;;;;;;;24.87;17.00;;;5.10;99.90;;;;;;4994010;28;20928;-63
2022/01/10 08:36:47;;;;;;;23.13;17.03;;;5.30;99.90;;;;;;4993526;28;20238;-62
2022/01/10 08:39:12;;;;;;;23.40;18.40;;;5.50;99.90;;;;;;4993705;28;20404;-60
2022/01/10 08:41:38;;;;;;;21.40;16.20;;;5.50;99.90;;;;;;4991094;28;20192;-63
2022/01/10 08:44:05;;;;;;;23.87;17.43;;;5.60;99.90;;;;;;4972050;28;20170;-60
2022/01/10 08:46:31;;;;;;;28.13;20.17;;;5.50;99.90;;;;;;4975383;28;20165;-61
2022/01/10 08:48:57;;;;;;;18.90;15.00;;;5.60;99.90;;;;;;4979826;28;20435;-63
2022/01/10 08:51:24;;;;;;;25.13;16.37;;;5.40;99.90;;;;;;4986564;28;20448;-63
2022/01/10 08:53:49;;;;;;;22.30;15.97;;;5.40;99.90;;;;;;4974140;28;20166;-63
2022/01/10 08:56:15;;;;;;;21.40;18.17;;;5.40;99.90;;;;;;4975294;28;20599;-63
2022/01/10 08:58:41;;;;;;;21.87;16.43;;;5.40;99.90;;;;;;4978956;28;20173;-62
2022/01/10 09:01:07;;;;;;;21.87;16.07;;;5.40;99.90;;;;;;4995463;28;20272;-63
2022/01/10 09:03:34;;;;;;;27.27;18.23;;;5.60;99.90;;;;;;4995265;28;20177;-63
2022/01/10 09:06:01;;;;;;;21.57;16.63;;;5.70;99.90;;;;;;4990740;28;20433;-63
2022/01/10 09:08:31;;;;;;;23.00;17.90;;;5.80;99.90;;;;;;4974626;28;20428;-62
2022/01/10 09:10:57;;;;;;;22.90;15.57;;;5.90;99.90;;;;;;4973877;28;20905;-64
2022/01/10 09:13:23;;;;;;;18.23;14.73;;;5.80;99.90;;;;;;4974387;28;20475;-62
2022/01/10 09:15:48;;;;;;;18.30;15.87;;;5.90;99.90;;;;;;4974159;28;20448;-62
2022/01/10 09:18:14;;;;;;;27.17;18.30;;;6.10;99.90;;;;;;4974288;28;20622;-62
2022/01/10 09:20:41;;;;;;;23.13;17.00;;;6.00;99.90;;;;;;4974058;28;20168;-63
2022/01/10 09:23:07;;;;;;;26.83;18.13;;;6.00;99.90;;;;;;4974201;28;20562;-63
2022/01/10 09:25:33;;;;;;;25.13;18.60;;;6.00;99.90;;;;;;4975069;28;20423;-63
2022/01/10 09:27:59;;;;;;;27.47;17.43;;;6.10;99.90;;;;;;4993498;28;20580;-63
2022/01/10 09:30:25;;;;;;;22.87;16.80;;;6.10;99.90;;;;;;4993261;28;20439;-63
2022/01/10 09:32:53;;;;;;;22.37;16.83;;;6.10;99.90;;;;;;4979163;28;20534;-62
2022/01/10 09:35:19;;;;;;;22.47;15.53;;;6.10;99.90;;;;;;4996704;28;20649;-62
2022/01/10 09:37:45;;;;;;;21.00;16.27;;;6.10;99.90;;;;;;4997137;28;20448;-63
2022/01/10 09:40:11;;;;;;;25.47;19.03;;;6.20;99.90;;;;;;4996995;28;20400;-63
2022/01/10 09:42:38;;;;;;;21.27;16.97;;;6.40;99.90;;;;;;4996529;28;20267;-62
2022/01/10 09:45:04;;;;;;;23.27;18.10;;;6.40;99.90;;;;;;4996596;28;20408;-62
2022/01/10 09:47:30;;;;;;;27.17;17.73;;;6.40;99.90;;;;;;4960991;28;20468;-61
2022/01/10 09:49:56;;;;;;;29.47;18.13;;;6.30;99.90;;;;;;4985360;28;20468;-61
2022/01/10 09:52:22;;;;;;;19.93;17.13;;;6.20;99.90;;;;;;4994878;28;20254;-61
2022/01/10 09:54:50;;;;;;;31.97;18.27;;;6.20;99.90;;;;;;4977074;28;20169;-59
2022/01/10 09:57:16;;;;;;;26.67;17.97;;;6.30;99.90;;;;;;4976750;28;20488;-63
2022/01/10 09:59:42;;;;;;;19.00;16.30;;;6.30;99.90;;;;;;4977120;28;20402;-63
2022/01/10 10:02:08;;;;;;;22.47;16.60;;;6.30;99.90;;;;;;4988398;23;20497;-59
2022/01/10 10:04:37;;;;;;;23.43;16.73;;;6.40;99.90;;;;;;4968138;28;20432;-59
2022/01/10 10:07:06;;;;;;;20.93;16.53;;;6.20;99.90;;;;;;4975680;28;20202;-60
2022/01/10 10:09:32;;;;;;;23.00;18.30;;;6.30;99.90;;;;;;4978501;28;20486;-60
2022/01/10 10:11:58;;;;;;;21.37;15.77;;;6.30;99.90;;;;;;4996195;28;20421;-59
2022/01/10 10:14:24;;;;;;;19.63;13.57;;;6.20;99.90;;;;;;4978318;28;20412;-59
2022/01/10 10:16:52;;;;;;;20.33;16.10;;;6.40;99.90;;;;;;4995590;28;20213;-60
2022/01/10 10:19:27;;;;;;;20.33;13.70;;;6.50;99.90;;;;;;4995766;28;20421;-61
2022/01/10 10:21:54;;;;;;;19.20;13.63;;;6.60;99.90;;;;;;4995927;28;20469;-59
2022/01/10 10:24:21;;;;;;;24.20;15.37;;;6.30;99.90;;;;;;4994615;28;20505;-59
2022/01/10 10:26:48;;;;;;;23.53;16.73;;;6.40;99.90;;;;;;4995464;28;20410;-59
2022/01/10 10:29:17;;;;;;;21.83;15.50;;;6.50;99.90;;;;;;4995245;28;20781;-59
2022/01/10 10:31:54;;;;;;;20.23;15.77;;;6.60;99.90;;;;;;4995577;28;20429;-57
2022/01/10 10:34:27;;;;;;;26.13;16.37;;;6.30;99.90;;;;;;4995628;28;20397;-59
2022/01/10 10:37:13;;;;;;;24.93;18.20;;;6.30;99.90;;;;;;4994158;28;20448;-58
2022/01/10 10:39:42;;;;;;;17.30;14.57;;;6.40;99.90;;;;;;4995306;28;20428;-59
2022/01/10 10:42:11;;;;;;;21.30;16.07;;;6.50;99.90;;;;;;4962509;28;20481;-59
2022/01/10 10:44:38;;;;;;;22.53;16.70;;;6.40;99.90;;;;;;4975409;28;20406;-57
2022/01/10 10:47:04;;;;;;;23.13;17.57;;;6.40;99.90;;;;;;4975886;28;20413;-59
2022/01/10 10:49:33;;;;;;;18.50;14.90;;;6.20;99.90;;;;;;4979530;28;20436;-57
2022/01/10 10:52:01;;;;;;;19.10;14.60;;;6.10;99.90;;;;;;4995363;28;20448;-60
2022/01/10 10:54:31;;;;;;;22.47;15.80;;;6.10;99.90;;;;;;4995385;28;20776;-60
2022/01/10 10:56:59;;;;;;;24.60;15.70;;;6.00;99.90;;;;;;4995387;28;20440;-60
2022/01/10 10:59:29;;;;;;;22.20;17.37;;;6.00;99.90;;;;;;4995254;28;20413;-60
2022/01/10 11:01:55;;;;;;;18.57;14.63;;;6.00;99.90;;;;;;4995025;28;20477;-60
2022/01/10 11:04:21;;;;;;;21.67;15.03;;;6.10;99.90;;;;;;4994146;28;20417;-60
2022/01/10 11:06:47;;;;;;;17.33;15.43;;;6.30;99.90;;;;;;4995053;28;20772;-60
2022/01/10 11:09:14;;;;;;;23.70;16.10;;;6.40;99.90;;;;;;4994808;28;20295;-60
2022/01/10 11:11:44;;;;;;;22.30;15.53;;;6.60;99.90;;;;;;4994952;28;20453;-59
2022/01/10 11:14:12;;;;;;;18.63;15.83;;;6.50;99.90;;;;;;4994398;28;20410;-59
2022/01/10 11:16:39;;;;;;;16.90;14.47;;;6.60;99.90;;;;;;4956012;29;20454;-60
2022/01/10 11:19:24;;;;;;;17.80;14.20;;;6.30;99.90;;;;;;4955930;29;20411;-59
2022/01/10 11:22:04;;;;;;;15.57;12.90;;;6.20;99.90;;;;;;4956025;28;20435;-60
2022/01/10 11:24:47;;;;;;;18.00;14.00;;;6.70;99.90;;;;;;4955815;29;20406;-60
2022/01/10 11:27:31;;;;;;;15.10;12.63;;;6.90;99.90;;;;;;4956056;29;20399;-58
2022/01/10 11:29:58;;;;;;;14.37;12.43;;;7.00;99.90;;;;;;4956121;29;20516;-60
2022/01/10 11:32:51;;;;;;;14.97;11.50;;;6.80;99.90;;;;;;4955503;28;20960;-59
2022/01/10 11:35:18;;;;;;;17.60;12.53;;;6.80;99.90;;;;;;4955501;29;20783;-60
2022/01/10 11:37:45;;;;;;;19.50;11.10;;;7.30;99.90;;;;;;4955464;29;20871;-60
2022/01/10 11:40:11;;;;;;;18.60;12.10;;;8.00;99.90;;;;;;4970642;28;20436;-60
2022/01/10 11:42:52;;;;;;;13.03;10.93;;;8.90;99.90;;;;;;4994315;28;20422;-60
2022/01/10 11:45:18;;;;;;;17.27;11.83;;;9.50;99.90;;;;;;4994400;28;21011;-60
2022/01/10 11:48:02;;;;;;;12.47;10.13;;;9.00;99.90;;;;;;4994154;28;20409;-59
2022/01/10 11:50:30;;;;;;;12.70;10.90;;;8.80;99.90;;;;;;4994008;28;20408;-60
2022/01/10 11:52:57;;;;;;;14.07;12.30;;;8.40;99.90;;;;;;4994141;28;20799;-58
2022/01/10 11:55:42;;;;;;;17.53;11.80;;;8.50;99.90;;;;;;4992642;28;20434;-59
2022/01/10 11:58:23;;;;;;;14.20;12.00;;;8.30;99.90;;;;;;4994381;28;20399;-60
2022/01/10 12:00:52;;;;;;;19.50;11.30;;;7.90;99.90;;;;;;4994064;28;20399;-60
2022/01/10 12:03:21;;;;;;;12.00;10.80;;;7.60;99.90;;;;;;4976475;28;20534;-60
2022/01/10 12:05:48;;;;;;;16.20;10.43;;;7.90;99.90;;;;;;4994154;28;20411;-57
2022/01/10 12:08:14;;;;;;;13.63;10.73;;;8.40;99.90;;;;;;4994062;28;20403;-55
2022/01/10 12:10:40;;;;;;;11.57;10.10;;;8.50;99.90;;;;;;4993512;28;20498;-58
2022/01/10 12:13:09;;;;;;;12.53;9.97;;;9.00;99.90;;;;;;4993816;28;20561;-58
2022/01/10 12:15:36;;;;;;;14.60;10.27;;;8.70;99.90;;;;;;4993661;28;20171;-59
2022/01/10 12:18:03;;;;;;;13.37;10.03;;;8.60;99.90;;;;;;4994013;28;20460;-59
2022/01/10 12:20:30;;;;;;;16.43;10.50;;;8.50;99.90;;;;;;4993963;28;20424;-60
2022/01/10 12:22:57;;;;;;;14.83;10.23;;;8.40;99.90;;;;;;4993587;28;20517;-60
2022/01/10 12:25:23;;;;;;;15.13;11.00;;;8.40;99.90;;;;;;4993682;28;20408;-59
2022/01/10 12:27:51;;;;;;;15.17;12.13;;;8.60;99.90;;;;;;4993508;28;20497;-60
2022/01/10 12:30:20;;;;;;;15.50;11.10;;;8.60;99.90;;;;;;4975262;28;21002;-60
2022/01/10 12:32:46;;;;;;;20.23;13.40;;;8.50;99.90;;;;;;4974188;28;20438;-59
2022/01/10 12:35:12;;;;;;;14.13;11.23;;;8.20;99.90;;;;;;4974263;28;20776;-61
2022/01/10 12:37:38;;;;;;;16.13;11.50;;;7.90;99.90;;;;;;4974396;28;20316;-59
2022/01/10 12:40:05;;;;;;;16.60;11.90;;;8.00;99.90;;;;;;4974623;28;20451;-59
2022/01/10 12:42:31;;;;;;;14.00;11.50;;;7.80;99.90;;;;;;4973751;28;20246;-57
2022/01/10 12:44:57;;;;;;;15.87;11.40;;;7.90;99.90;;;;;;4973968;28;20416;-59
2022/01/10 12:47:25;;;;;;;18.77;12.17;;;7.80;99.90;;;;;;4974265;28;20459;-61
2022/01/10 12:49:52;;;;;;;15.03;11.57;;;7.70;99.90;;;;;;4979857;28;20430;-58
2022/01/10 12:52:19;;;;;;;17.43;12.83;;;7.70;99.90;;;;;;4972705;28;20435;-60
2022/01/10 12:54:44;;;;;;;21.83;14.27;;;7.50;99.90;;;;;;4972426;28;20436;-59